createdAt,value
2023-04-11T00:00:13.853Z,3.35
2023-04-11T00:02:41.361Z,3.42
2023-04-11T00:05:09.620Z,3.60
2023-04-11T00:07:37.302Z,3.50
2023-04-11T00:10:05.045Z,3.50
2023-04-11T00:12:32.308Z,3.22
2023-04-11T00:14:59.499Z,3.22
2023-04-11T00:17:29.087Z,3.50
2023-04-11T00:19:58.030Z,3.95
2023-04-11T00:22:25.220Z,3.63
2023-04-11T00:24:53.312Z,3.92
2023-04-11T00:27:21.886Z,3.42
2023-04-11T00:29:49.272Z,3.25
2023-04-11T00:32:16.566Z,3.72
2023-04-11T00:34:43.782Z,3.50
2023-04-11T00:37:12.998Z,3.55
2023-04-11T00:39:42.940Z,3.50
2023-04-11T00:42:10.134Z,3.70
2023-04-11T00:44:37.656Z,3.50
2023-04-11T00:47:07.264Z,3.70
2023-04-11T00:49:35.950Z,3.67
2023-04-11T00:52:04.473Z,3.60
2023-04-11T00:54:32.325Z,3.28
2023-04-11T00:57:04.711Z,3.60
2023-04-11T00:59:33.340Z,3.75
2023-04-11T01:02:01.712Z,3.75
2023-04-11T01:04:30.168Z,3.30
2023-04-11T01:07:04.375Z,3.72
2023-04-11T01:09:34.663Z,4.07
2023-04-11T01:12:03.235Z,3.88
2023-04-11T01:14:30.935Z,3.75
2023-04-11T01:16:58.864Z,4.47
2023-04-11T01:19:26.901Z,3.75
2023-04-11T01:21:56.274Z,4.00
2023-04-11T01:24:23.600Z,4.28
2023-04-11T01:26:50.958Z,3.92
2023-04-11T01:29:18.170Z,3.80
2023-04-11T01:31:45.577Z,3.75
2023-04-11T01:34:14.850Z,3.60
2023-04-11T01:36:43.131Z,3.80
2023-04-11T01:39:10.766Z,3.90
2023-04-11T01:41:38.830Z,3.58
2023-04-11T01:44:06.372Z,3.70
2023-04-11T01:46:34.033Z,4.50
2023-04-11T01:49:01.831Z,4.40
2023-04-11T01:51:29.193Z,4.38
2023-04-11T01:53:56.370Z,4.28
2023-04-11T01:56:23.627Z,3.92
2023-04-11T01:58:50.852Z,4.25
2023-04-11T02:01:19.279Z,4.10
2023-04-11T02:03:46.822Z,3.53
2023-04-11T02:06:15.724Z,3.85
2023-04-11T02:08:43.717Z,3.50
2023-04-11T02:11:11.265Z,3.28
2023-04-11T02:13:38.542Z,3.63
2023-04-11T02:16:11.949Z,3.83
2023-04-11T02:18:40.065Z,3.72
2023-04-11T02:21:07.401Z,3.83
2023-04-11T02:23:34.635Z,3.90
2023-04-11T02:26:02.740Z,3.90
2023-04-11T02:28:30.136Z,3.58
2023-04-11T02:30:57.407Z,3.60
2023-04-11T02:33:24.898Z,4.30
2023-04-11T02:35:52.184Z,3.95
2023-04-11T02:38:19.406Z,3.63
2023-04-11T02:40:47.059Z,3.80
2023-04-11T02:43:14.284Z,4.20
2023-04-11T02:45:41.632Z,3.88
2023-04-11T02:48:08.939Z,3.95
2023-04-11T02:50:36.380Z,4.30
2023-04-11T02:53:03.614Z,4.07
2023-04-11T02:55:30.863Z,3.97
2023-04-11T02:57:58.750Z,4.07
2023-04-11T03:00:26.434Z,3.72
2023-04-11T03:02:56.755Z,3.88
2023-04-11T03:05:24.087Z,3.55
2023-04-11T03:07:51.374Z,4.07
2023-04-11T03:10:18.779Z,3.60
2023-04-11T03:12:46.232Z,4.10
2023-04-11T03:15:15.636Z,4.30
2023-04-11T03:17:43.090Z,4.00
2023-04-11T03:20:14.045Z,3.92
2023-04-11T03:22:41.265Z,3.90
2023-04-11T03:25:09.116Z,4.30
2023-04-11T03:27:36.351Z,3.95
2023-04-11T03:30:04.037Z,3.75
2023-04-11T03:32:31.338Z,4.45
2023-04-11T03:35:01.236Z,4.10
2023-04-11T03:37:28.480Z,4.05
2023-04-11T03:39:55.900Z,3.90
2023-04-11T03:42:23.078Z,3.83
2023-04-11T03:44:50.344Z,3.92
2023-04-11T03:47:17.545Z,4.28
2023-04-11T03:49:44.759Z,4.47
2023-04-11T03:52:15.285Z,4.32
2023-04-11T03:57:09.700Z,3.97
2023-04-11T03:59:36.896Z,4.45
2023-04-11T04:02:04.208Z,4.18
2023-04-11T04:04:33.656Z,4.13
2023-04-11T04:07:01.909Z,4.10
2023-04-11T04:09:29.091Z,4.28
2023-04-11T04:11:56.257Z,4.40
2023-04-11T04:14:23.565Z,4.20
2023-04-11T04:16:50.908Z,3.97
2023-04-11T04:19:18.204Z,4.55
2023-04-11T04:21:46.134Z,4.25
2023-04-11T04:24:13.284Z,4.20
2023-04-11T04:26:40.700Z,4.25
2023-04-11T04:29:10.715Z,4.28
2023-04-11T04:34:10.449Z,3.67
2023-04-11T04:36:46.691Z,3.70
2023-04-11T04:39:18.737Z,3.70
2023-04-11T04:41:49.757Z,3.92
2023-04-11T04:44:16.897Z,4.22
2023-04-11T04:46:44.714Z,4.20
2023-04-11T04:49:11.953Z,4.07
2023-04-11T04:51:40.787Z,4.07
2023-04-11T04:54:08.045Z,4.10
2023-04-11T04:56:35.200Z,4.40
2023-04-11T04:59:02.548Z,4.15
2023-04-11T05:01:29.801Z,4.00
2023-04-11T05:04:00.667Z,4.10
2023-04-11T05:06:30.136Z,3.95
2023-04-11T05:08:59.215Z,3.75
2023-04-11T05:11:27.792Z,3.80
2023-04-11T05:13:56.024Z,3.67
2023-04-11T05:16:23.574Z,3.90
2023-04-11T05:18:50.798Z,3.67
2023-04-11T05:21:18.216Z,3.45
2023-04-11T05:23:45.535Z,3.63
2023-04-11T05:26:12.749Z,3.72
2023-04-11T05:28:39.890Z,3.63
2023-04-11T05:31:11.959Z,3.60
2023-04-11T05:33:40.402Z,3.80
2023-04-11T05:36:07.999Z,4.05
2023-04-11T05:38:35.133Z,4.10
2023-04-11T05:41:02.414Z,3.88
2023-04-11T05:43:29.625Z,3.75
2023-04-11T05:45:57.842Z,3.80
2023-04-11T05:48:25.047Z,3.47
2023-04-11T05:50:52.725Z,3.90
2023-04-11T05:53:19.927Z,3.50
2023-04-11T05:55:47.052Z,3.70
2023-04-11T05:58:14.199Z,3.80
2023-04-11T06:00:41.378Z,3.78
2023-04-11T06:03:09.801Z,3.42
2023-04-11T06:05:37.158Z,4.20
2023-04-11T06:08:07.384Z,3.78
2023-04-11T06:10:35.922Z,3.67
2023-04-11T06:13:03.181Z,3.97
2023-04-11T06:15:30.637Z,3.95
2023-04-11T06:17:57.868Z,4.10
2023-04-11T06:20:25.298Z,4.03
2023-04-11T06:22:52.575Z,4.10
2023-04-11T06:25:21.562Z,3.60
2023-04-11T06:27:48.746Z,3.90
2023-04-11T06:30:16.572Z,4.03
2023-04-11T06:32:43.907Z,3.78
2023-04-11T06:35:11.097Z,4.35
2023-04-11T06:37:38.276Z,3.78
2023-04-11T06:40:05.963Z,3.75
2023-04-11T06:42:33.186Z,3.88
2023-04-11T06:45:00.388Z,4.03
2023-04-11T06:47:27.639Z,3.60
2023-04-11T06:49:55.778Z,3.83
2023-04-11T06:52:23.053Z,4.10
2023-04-11T06:54:50.189Z,4.35
2023-04-11T06:57:18.122Z,3.97
2023-04-11T06:59:45.347Z,3.80
2023-04-11T07:02:12.600Z,3.85
2023-04-11T07:04:39.961Z,4.35
2023-04-11T07:07:07.297Z,3.67
2023-04-11T07:09:34.564Z,4.63
2023-04-11T07:12:01.932Z,4.78
2023-04-11T07:14:29.058Z,4.53
2023-04-11T07:16:56.348Z,4.38
2023-04-11T07:19:23.520Z,4.60
2023-04-11T07:21:50.706Z,4.50
2023-04-11T07:24:18.833Z,4.53
2023-04-11T07:26:46.835Z,4.65
2023-04-11T07:29:14.863Z,4.22
2023-04-11T07:31:42.583Z,4.57
2023-04-11T07:34:09.865Z,4.57
2023-04-11T07:36:37.077Z,4.30
2023-04-11T07:39:04.829Z,4.45
2023-04-11T07:41:32.008Z,4.00
2023-04-11T07:43:59.192Z,4.63
2023-04-11T07:46:26.408Z,4.90
2023-04-11T07:48:53.544Z,4.45
2023-04-11T07:51:20.852Z,4.30
2023-04-11T07:53:48.027Z,4.70
2023-04-11T07:56:15.795Z,4.55
2023-04-11T07:58:43.350Z,4.10
2023-04-11T08:01:25.192Z,4.22
2023-04-11T08:03:54.174Z,4.80
2023-04-11T08:06:21.718Z,4.40
2023-04-11T08:08:50.390Z,4.20
2023-04-11T08:11:17.631Z,3.75
2023-04-11T08:13:45.376Z,4.05
2023-04-11T08:16:15.447Z,4.40
2023-04-11T08:18:43.029Z,5.40
2023-04-11T08:21:13.899Z,4.68
2023-04-11T08:23:53.744Z,4.57
2023-04-11T08:26:21.610Z,4.30
2023-04-11T08:28:48.757Z,4.63
2023-04-11T08:31:15.991Z,4.28
2023-04-11T08:33:43.334Z,4.45
2023-04-11T08:36:11.523Z,4.90
2023-04-11T08:38:40.471Z,4.20
2023-04-11T08:41:07.836Z,4.38
2023-04-11T08:43:36.399Z,4.60
2023-04-11T08:46:08.298Z,4.78
2023-04-11T08:48:35.990Z,4.82
2023-04-11T08:51:03.188Z,4.75
2023-04-11T08:53:31.108Z,4.05
2023-04-11T08:56:00.076Z,4.45
2023-04-11T08:58:27.285Z,4.57
2023-04-11T09:00:54.469Z,3.53
2023-04-11T09:03:21.952Z,4.32
2023-04-11T09:05:49.395Z,5.20
2023-04-11T09:08:17.466Z,4.50
2023-04-11T09:10:45.856Z,4.90
2023-04-11T09:13:22.201Z,4.70
2023-04-11T09:16:12.320Z,4.13
2023-04-11T09:18:44.231Z,4.20
2023-04-11T09:21:14.377Z,3.33
2023-04-11T09:23:42.065Z,3.90
2023-04-11T09:26:11.300Z,3.88
2023-04-11T09:28:52.656Z,4.95
2023-04-11T09:31:42.846Z,4.18
2023-04-11T09:34:11.565Z,4.22
2023-04-11T09:36:39.385Z,4.32
2023-04-11T09:39:19.286Z,4.65
2023-04-11T09:41:46.870Z,4.47
2023-04-11T09:44:14.466Z,4.18
2023-04-11T09:46:58.282Z,4.20
2023-04-11T09:49:26.038Z,4.07
2023-04-11T09:51:54.321Z,3.88
2023-04-11T09:54:24.476Z,3.92
2023-04-11T09:56:51.687Z,4.07
2023-04-11T09:59:21.526Z,4.18
2023-04-11T10:01:50.956Z,4.20
2023-04-11T10:04:20.708Z,4.45
2023-04-11T10:07:12.863Z,4.13
2023-04-11T10:09:43.661Z,3.75
2023-04-11T10:12:11.124Z,4.22
2023-04-11T10:14:38.358Z,3.58
2023-04-11T10:17:23.998Z,3.95
2023-04-11T10:19:57.896Z,4.53
2023-04-11T10:22:46.686Z,5.00
2023-04-11T10:25:27.350Z,4.57
2023-04-11T10:30:40.538Z,3.60
2023-04-11T10:33:14.968Z,4.20
2023-04-11T10:36:11.758Z,4.78
2023-04-11T10:38:44.678Z,3.97
2023-04-11T10:41:25.330Z,4.32
2023-04-11T10:46:25.039Z,3.22
2023-04-11T10:49:05.656Z,0.88
2023-04-11T10:51:34.998Z,4.40
2023-04-11T10:54:02.912Z,4.30
2023-04-11T10:56:49.039Z,4.68
2023-04-11T10:59:37.091Z,4.25
2023-04-11T11:02:04.312Z,2.83
2023-04-11T11:04:40.441Z,4.43
2023-04-11T11:07:14.037Z,3.72
2023-04-11T11:09:41.360Z,4.00
2023-04-11T11:12:10.123Z,3.63
2023-04-11T11:14:38.378Z,3.08
2023-04-11T11:17:05.974Z,3.10
2023-04-11T11:19:33.999Z,2.30
2023-04-11T11:22:05.041Z,4.05
2023-04-11T11:24:32.633Z,2.28
2023-04-11T11:27:00.070Z,3.83
2023-04-11T11:29:39.524Z,3.75
2023-04-11T11:32:07.198Z,3.65
2023-04-11T11:34:35.637Z,2.85
2023-04-11T11:37:06.930Z,3.15
2023-04-11T11:39:35.770Z,4.05
2023-04-11T11:42:03.670Z,3.33
2023-04-11T11:44:31.779Z,3.83
2023-04-11T11:47:09.353Z,3.70
2023-04-11T11:49:54.500Z,4.53
2023-04-11T11:52:41.418Z,4.40
2023-04-11T11:55:22.642Z,4.72
2023-04-11T11:57:50.811Z,4.53
2023-04-11T12:00:26.289Z,4.00
2023-04-11T12:02:57.223Z,4.22
2023-04-11T12:05:30.387Z,4.00
2023-04-11T12:08:00.102Z,3.85
2023-04-11T12:10:37.762Z,4.47
2023-04-11T12:13:27.320Z,3.42
2023-04-11T12:16:01.760Z,3.92
2023-04-11T12:18:28.995Z,3.90
2023-04-11T12:20:56.251Z,3.33
2023-04-11T12:23:23.515Z,4.20
2023-04-11T12:25:50.869Z,3.53
2023-04-11T12:28:18.067Z,3.90
2023-04-11T12:30:45.232Z,4.53
2023-04-11T12:33:12.380Z,4.28
2023-04-11T12:35:39.654Z,3.78
2023-04-11T12:38:08.072Z,3.95
2023-04-11T12:40:35.410Z,3.95
2023-04-11T12:43:02.601Z,4.13
2023-04-11T12:45:29.962Z,4.57
2023-04-11T12:47:57.249Z,4.03
2023-04-11T12:50:24.730Z,3.95
2023-04-11T12:52:52.695Z,3.70
2023-04-11T12:55:20.023Z,4.10
2023-04-11T12:57:47.294Z,3.55
2023-04-11T13:00:15.192Z,4.18
2023-04-11T13:02:44.949Z,3.13
2023-04-11T13:05:15.699Z,4.30
2023-04-11T13:07:47.728Z,4.20
2023-04-11T13:10:16.500Z,4.20
2023-04-11T13:12:45.163Z,3.67
2023-04-11T13:15:14.695Z,3.63
2023-04-11T13:17:42.073Z,3.45
2023-04-11T13:20:11.874Z,3.85
2023-04-11T13:22:42.892Z,3.47
2023-04-11T13:25:11.205Z,3.72
2023-04-11T13:27:39.818Z,3.92
2023-04-11T13:30:08.313Z,3.72
2023-04-11T13:32:35.635Z,3.90
2023-04-11T13:35:04.054Z,3.30
2023-04-11T13:37:31.436Z,4.10
2023-04-11T13:39:58.721Z,3.47
2023-04-11T13:42:26.222Z,3.83
2023-04-11T13:44:53.774Z,3.78
2023-04-11T13:47:21.096Z,3.22
2023-04-11T13:49:48.361Z,2.83
2023-04-11T13:52:15.808Z,3.55
2023-04-11T13:54:42.983Z,3.70
2023-04-11T13:57:10.127Z,3.50
2023-04-11T13:59:37.385Z,3.50
2023-04-11T14:02:04.823Z,3.97
2023-04-11T14:04:32.248Z,3.70
2023-04-11T14:06:59.757Z,2.92
2023-04-11T14:09:26.980Z,3.80
2023-04-11T14:11:54.131Z,3.92
2023-04-11T14:14:21.388Z,3.92
2023-04-11T14:16:48.687Z,3.72
2023-04-11T14:19:16.514Z,3.30
2023-04-11T14:21:43.732Z,3.53
2023-04-11T14:24:11.013Z,3.33
2023-04-11T14:26:38.221Z,3.83
2023-04-11T14:29:05.420Z,3.30
2023-04-11T14:31:32.725Z,3.05
2023-04-11T14:34:00.107Z,3.10
2023-04-11T14:36:28.175Z,3.20
2023-04-11T14:38:55.486Z,3.20
2023-04-11T14:41:23.470Z,3.30
2023-04-11T14:43:51.021Z,2.13
2023-04-11T14:46:18.440Z,1.73
2023-04-11T14:48:45.638Z,3.80
2023-04-11T14:51:12.893Z,3.20
2023-04-11T14:53:40.091Z,3.15
2023-04-11T14:56:07.907Z,2.95
2023-04-11T14:58:35.217Z,1.60
2023-04-11T15:01:02.502Z,3.30
2023-04-11T15:03:29.975Z,3.42
2023-04-11T15:05:57.527Z,3.80
2023-04-11T15:08:24.767Z,0.98
2023-04-11T15:10:54.646Z,2.75
2023-04-11T15:13:22.994Z,3.25
2023-04-11T15:15:50.334Z,3.55
2023-04-11T15:18:28.254Z,3.03
2023-04-11T15:20:57.040Z,3.70
2023-04-11T15:23:24.628Z,3.30
2023-04-11T15:25:57.020Z,2.95
2023-04-11T15:28:25.572Z,3.35
2023-04-11T15:30:54.480Z,3.20
2023-04-11T15:33:25.147Z,3.40
2023-04-11T15:38:26.732Z,3.35
2023-04-11T15:40:56.530Z,3.70
2023-04-11T15:43:24.317Z,3.63
2023-04-11T15:45:52.746Z,3.08
2023-04-11T15:48:19.905Z,3.40
2023-04-11T15:50:47.157Z,3.40
2023-04-11T15:53:14.496Z,3.25
2023-04-11T15:55:43.323Z,3.20
2023-04-11T15:58:11.108Z,3.78
2023-04-11T16:00:39.604Z,3.47
2023-04-11T16:03:08.897Z,3.40
2023-04-11T16:05:41.052Z,3.00
2023-04-11T16:08:08.465Z,3.67
2023-04-11T16:10:35.965Z,3.33
2023-04-11T16:13:03.321Z,4.00
2023-04-11T16:15:30.590Z,4.18
2023-04-11T16:17:57.967Z,3.47
2023-04-11T16:20:25.452Z,4.10
2023-04-11T16:22:52.618Z,3.85
2023-04-11T16:25:21.666Z,3.83
2023-04-11T16:27:50.212Z,3.85
2023-04-11T16:30:17.579Z,4.18
2023-04-11T16:32:44.913Z,4.03
2023-04-11T16:35:12.189Z,4.22
2023-04-11T16:37:39.448Z,4.32
2023-04-11T16:40:11.665Z,4.60
2023-04-11T16:42:39.907Z,4.43
2023-04-11T16:45:08.247Z,4.20
2023-04-11T16:47:35.771Z,4.18
2023-04-11T16:50:04.056Z,3.50
2023-04-11T16:52:31.984Z,3.78
2023-04-11T16:54:59.112Z,4.10
2023-04-11T16:57:27.640Z,3.45
2023-04-11T16:59:55.006Z,4.10
2023-04-11T17:02:22.208Z,4.70
2023-04-11T17:04:49.607Z,4.93
2023-04-11T17:07:17.520Z,5.47
2023-04-11T17:09:47.895Z,7.53
2023-04-11T17:12:15.074Z,5.78
2023-04-11T17:14:42.494Z,4.70
2023-04-11T17:17:09.621Z,4.65
2023-04-11T17:19:37.025Z,4.55
2023-04-11T17:22:06.130Z,5.03
2023-04-11T17:24:33.313Z,4.28
2023-04-11T17:27:00.667Z,4.10
2023-04-11T17:29:27.929Z,4.35
2023-04-11T17:31:55.040Z,4.32
2023-04-11T17:34:22.272Z,4.32
2023-04-11T17:36:49.491Z,4.25
2023-04-11T17:39:18.160Z,4.22
2023-04-11T17:41:46.326Z,4.38
2023-04-11T17:44:13.936Z,4.28
2023-04-11T17:46:41.362Z,4.43
2023-04-11T17:49:08.798Z,4.00
2023-04-11T17:51:38.946Z,3.80
2023-04-11T17:54:10.201Z,9.07
2023-04-11T17:56:37.293Z,9.75
2023-04-11T17:59:04.407Z,7.78
2023-04-11T18:01:32.646Z,6.55
2023-04-11T18:04:01.587Z,5.07
2023-04-11T18:06:29.860Z,4.55
2023-04-11T18:08:57.156Z,4.40
2023-04-11T18:11:24.598Z,4.30
2023-04-11T18:13:51.865Z,4.03
2023-04-11T18:16:19.244Z,4.40
2023-04-11T18:18:47.728Z,4.20
2023-04-11T18:21:16.260Z,4.32
2023-04-11T18:23:43.992Z,4.35
2023-04-11T18:26:13.464Z,4.78
2023-04-11T18:28:40.610Z,4.32
2023-04-11T18:31:07.976Z,4.53
2023-04-11T18:33:37.529Z,4.47
2023-04-11T18:36:07.743Z,4.13
2023-04-11T18:38:34.937Z,4.68
2023-04-11T18:41:06.499Z,4.65
2023-04-11T18:43:35.328Z,4.38
2023-04-11T18:46:02.591Z,4.40
2023-04-11T18:48:31.033Z,4.50
2023-04-11T18:51:01.701Z,4.82
2023-04-11T18:53:30.212Z,4.45
2023-04-11T18:55:58.137Z,4.90
2023-04-11T18:58:26.519Z,4.32
2023-04-11T19:00:55.114Z,4.38
2023-04-11T19:03:23.731Z,4.10
2023-04-11T19:05:51.926Z,4.30
2023-04-11T19:08:19.083Z,4.60
2023-04-11T19:10:46.606Z,4.40
2023-04-11T19:13:14.138Z,4.88
2023-04-11T19:15:42.162Z,4.72
2023-04-11T19:18:10.671Z,4.88
2023-04-11T19:20:39.126Z,4.18
2023-04-11T19:23:06.562Z,4.70
2023-04-11T19:25:34.108Z,4.47
2023-04-11T19:28:01.285Z,3.95
2023-04-11T19:30:28.846Z,4.15
2023-04-11T19:32:57.330Z,4.22
2023-04-11T19:35:25.517Z,4.35
2023-04-11T19:37:53.134Z,4.45
2023-04-11T19:40:23.501Z,4.28
2023-04-11T19:42:51.667Z,4.20
2023-04-11T19:45:19.033Z,4.40
2023-04-11T19:47:46.576Z,4.63
2023-04-11T19:50:13.988Z,4.63
2023-04-11T19:52:42.566Z,4.75
2023-04-11T19:55:11.010Z,4.88
2023-04-11T19:57:43.987Z,4.78
2023-04-11T20:00:16.179Z,4.47
2023-04-11T20:02:46.030Z,4.57
2023-04-11T20:05:18.822Z,4.47
2023-04-11T20:07:46.899Z,5.20
2023-04-11T20:10:15.039Z,4.50
2023-04-11T20:12:42.427Z,5.13
2023-04-11T20:15:10.954Z,4.70
2023-04-11T20:17:38.223Z,5.00
2023-04-11T20:20:09.123Z,4.65
2023-04-11T20:22:38.516Z,4.85
2023-04-11T20:25:07.559Z,5.32
2023-04-11T20:27:34.676Z,5.13
2023-04-11T20:30:07.013Z,4.97
2023-04-11T20:32:34.206Z,5.00
2023-04-11T20:35:01.788Z,5.10
2023-04-11T20:37:32.168Z,5.18
2023-04-11T20:39:59.359Z,5.45
2023-04-11T20:42:28.373Z,5.13
2023-04-11T20:45:06.284Z,5.03
2023-04-11T20:47:37.768Z,5.60
2023-04-11T20:50:10.600Z,5.55
2023-04-11T20:52:38.623Z,5.05
2023-04-11T20:55:06.174Z,4.97
2023-04-11T20:57:33.891Z,5.45
2023-04-11T21:00:01.976Z,5.53
2023-04-11T21:02:29.157Z,5.35
2023-04-11T21:04:56.504Z,5.32
2023-04-11T21:07:23.856Z,5.50
2023-04-11T21:09:51.164Z,5.35
2023-04-11T21:12:18.524Z,5.18
2023-04-11T21:14:45.807Z,5.68
2023-04-11T21:17:13.227Z,5.72
2023-04-11T21:19:40.343Z,6.25
2023-04-11T21:22:10.489Z,5.68
2023-04-11T21:24:37.617Z,5.25
2023-04-11T21:27:04.834Z,5.18
2023-04-11T21:29:32.000Z,5.65
2023-04-11T21:31:59.199Z,5.70
2023-04-11T21:34:26.977Z,5.85
2023-04-11T21:36:54.038Z,6.13
2023-04-11T21:39:21.455Z,5.47
2023-04-11T21:41:48.655Z,5.65
2023-04-11T21:44:15.870Z,5.88
2023-04-11T21:46:43.145Z,6.00
2023-04-11T21:49:10.307Z,6.03
2023-04-11T21:51:37.410Z,6.00
2023-04-11T21:54:05.442Z,5.63
2023-04-11T21:56:32.640Z,6.18
2023-04-11T21:58:59.840Z,6.05
2023-04-11T22:01:27.345Z,5.78
2023-04-11T22:03:56.718Z,5.80
2023-04-11T22:06:26.639Z,6.38
2023-04-11T22:08:53.819Z,6.25
2023-04-11T22:11:21.071Z,6.45
2023-04-11T22:13:48.202Z,5.82
2023-04-11T22:16:15.637Z,5.85
2023-04-11T22:18:49.384Z,6.15
2023-04-11T22:21:19.865Z,6.22
2023-04-11T22:26:35.426Z,5.45
2023-04-11T22:29:06.012Z,5.47
2023-04-11T22:31:38.990Z,5.78
2023-04-11T22:34:08.526Z,6.13
2023-04-11T22:36:35.819Z,5.47
2023-04-11T22:39:07.089Z,5.88
2023-04-11T22:41:35.621Z,5.95
2023-04-11T22:44:03.124Z,5.63
2023-04-11T22:46:34.139Z,5.70
2023-04-11T22:49:01.421Z,5.90
2023-04-11T22:51:30.372Z,5.50
2023-04-11T22:53:58.473Z,6.15
2023-04-11T22:56:25.999Z,6.05
2023-04-11T22:58:53.293Z,5.55
2023-04-11T23:01:20.508Z,5.97
2023-04-11T23:03:47.872Z,5.93
2023-04-11T23:06:15.112Z,5.97
2023-04-11T23:08:45.046Z,5.57
2023-04-11T23:11:13.041Z,5.65
2023-04-11T23:13:40.249Z,5.63
2023-04-11T23:16:09.307Z,5.95
2023-04-11T23:18:36.653Z,5.53
2023-04-11T23:21:04.369Z,5.28
2023-04-11T23:23:31.551Z,5.50
2023-04-11T23:25:58.967Z,4.80
2023-04-11T23:28:26.228Z,5.68
2023-04-11T23:30:55.282Z,5.50
2023-04-11T23:33:22.541Z,5.30
2023-04-11T23:35:49.751Z,5.40
2023-04-11T23:38:17.421Z,5.28
2023-04-11T23:40:45.488Z,5.65
2023-04-11T23:43:12.821Z,5.97
2023-04-11T23:45:39.996Z,5.80
2023-04-11T23:48:07.695Z,5.65
2023-04-11T23:50:34.845Z,5.85
2023-04-11T23:53:02.114Z,5.88
2023-04-11T23:55:30.137Z,6.35
2023-04-11T23:57:57.345Z,5.88
